Time;durP1;ratioP1;P1;durP2;ratioP2;P2;SDS_P1;SDS_P2;PMS_P1;PMS_P2;Temp;Humidity;BMP_temperature;BMP_pressure;BME280_temperature;BME280_humidity;BME280_pressure;Samples;Min_cycle;Max_cycle;Signal;HPM_P1;HPM_P2
2021/03/10 00:00:17;;;;;;;21.55;9.90;;;;;;;10.34;57.29;100396.00;4992363;28;20503;-85
2021/03/10 00:02:43;;;;;;;18.92;10.55;;;;;;;10.77;56.85;100389.63;4991119;28;20033;-85
2021/03/10 00:05:09;;;;;;;17.15;10.07;;;;;;;10.41;57.71;100392.03;4992820;28;20031;-85
2021/03/10 00:07:35;;;;;;;22.85;10.15;;;;;;;10.60;57.04;100388.97;4991938;28;20516;-86
2021/03/10 00:10:02;;;;;;;17.73;9.30;;;;;;;10.71;56.16;100393.50;4993103;28;20038;-86
2021/03/10 00:12:27;;;;;;;22.92;9.25;;;;;;;10.83;55.39;100407.59;4973657;28;20110;-86
2021/03/10 00:14:53;;;;;;;28.27;9.27;;;;;;;10.59;56.45;100405.69;4973072;28;20058;-86
2021/03/10 00:17:18;;;;;;;18.95;8.82;;;;;;;10.62;57.07;100400.22;4973303;28;20034;-86
2021/03/10 00:19:44;;;;;;;17.67;8.98;;;;;;;10.77;56.67;100400.97;4973373;28;20023;-86
2021/03/10 00:22:09;;;;;;;18.75;8.98;;;;;;;10.87;55.85;100396.75;4973392;28;20023;-86
2021/03/10 00:24:36;;;;;;;17.80;8.80;;;;;;;10.85;56.70;100396.03;4973410;28;20034;-86
2021/03/10 00:27:01;;;;;;;14.10;8.13;;;;;;;10.53;57.62;100400.88;4972921;28;20085;-86
2021/03/10 00:29:27;;;;;;;22.30;8.10;;;;;;;10.41;58.24;100399.91;4979648;28;20034;-85
2021/03/10 00:31:52;;;;;;;17.13;8.55;;;;;;;10.47;57.79;100375.88;4993052;28;20089;-85
2021/03/10 00:34:17;;;;;;;16.70;7.30;;;;;;;10.55;57.73;100374.50;4992670;28;20110;-86
2021/03/10 00:36:43;;;;;;;13.43;7.22;;;;;;;10.79;56.94;100369.34;4992458;28;20085;-85
2021/03/10 00:39:08;;;;;;;15.85;6.97;;;;;;;10.94;55.65;100381.44;4991149;28;20454;-86
2021/03/10 00:41:33;;;;;;;13.30;7.10;;;;;;;10.38;58.55;100370.41;4992746;28;20172;-86
2021/03/10 00:43:59;;;;;;;19.83;7.10;;;;;;;10.87;56.71;100372.28;4992523;28;20034;-86
2021/03/10 00:46:24;;;;;;;16.40;6.80;;;;;;;10.70;56.91;100361.16;4992496;28;20022;-86
2021/03/10 00:48:49;;;;;;;10.95;5.85;;;;;;;10.74;57.19;100356.50;4992426;28;20045;-85
2021/03/10 00:51:15;;;;;;;10.57;6.30;;;;;;;10.64;57.83;100356.34;4992417;28;20030;-85
2021/03/10 00:53:41;;;;;;;20.50;6.78;;;;;;;10.83;57.07;100365.56;4992404;28;20019;-85
2021/03/10 00:56:07;;;;;;;11.52;6.47;;;;;;;10.62;57.55;100352.94;4992447;28;20029;-85
2021/03/10 00:58:32;;;;;;;14.02;6.47;;;;;;;10.80;56.78;100355.25;4992085;28;20034;-85
2021/03/10 01:00:58;;;;;;;11.75;5.68;;;;;;;10.70;57.02;100341.91;4991648;28;20124;-85
2021/03/10 01:03:23;;;;;;;18.80;6.25;;;;;;;10.79;56.72;100343.09;4991901;28;20089;-86
2021/03/10 01:05:48;;;;;;;17.52;6.68;;;;;;;10.73;56.62;100339.09;4995558;28;20022;-84
2021/03/10 01:08:14;;;;;;;13.85;6.70;;;;;;;10.45;57.83;100333.13;4996917;28;20030;-85
2021/03/10 01:10:40;;;;;;;14.10;5.80;;;;;;;10.66;57.03;100330.81;4994741;28;20113;-85
2021/03/10 01:13:05;;;;;;;13.63;6.57;;;;;;;10.57;57.19;100333.25;4996087;28;20034;-85
2021/03/10 01:15:31;;;;;;;14.73;6.15;;;;;;;10.36;57.47;100320.63;4995969;28;20066;-85
2021/03/10 01:17:57;;;;;;;14.80;6.22;;;;;;;10.36;57.52;100304.03;4995680;28;20497;-85
2021/03/10 01:20:24;;;;;;;13.73;6.30;;;;;;;10.45;57.48;100303.44;4996062;28;20026;-85
2021/03/10 01:22:49;;;;;;;15.35;6.15;;;;;;;10.71;56.38;100304.22;4996989;28;20073;-85
2021/03/10 01:25:15;;;;;;;14.10;6.85;;;;;;;10.44;57.09;100307.81;4997871;28;20035;-85
2021/03/10 01:27:41;;;;;;;15.07;5.78;;;;;;;10.54;56.88;100313.25;4998606;28;20104;-84
2021/03/10 01:30:09;;;;;;;18.23;6.00;;;;;;;10.58;57.11;100311.28;4997927;28;20030;-85
2021/03/10 01:32:35;;;;;;;19.05;6.57;;;;;;;10.75;56.68;100315.38;4997579;28;20464;-85
2021/03/10 01:35:01;;;;;;;12.52;5.95;;;;;;;10.55;56.74;100301.84;4998425;28;20029;-84
2021/03/10 01:37:26;;;;;;;14.35;6.10;;;;;;;10.86;56.10;100307.53;4996752;28;20018;-86
2021/03/10 01:39:52;;;;;;;13.20;5.50;;;;;;;10.58;56.75;100285.84;4998738;28;20048;-85
2021/03/10 01:42:17;;;;;;;17.63;6.05;;;;;;;10.73;56.17;100285.75;4999331;28;20081;-86
2021/03/10 01:44:43;;;;;;;12.75;5.28;;;;;;;10.63;56.22;100299.50;4995559;28;20027;-85
2021/03/10 01:47:08;;;;;;;17.95;5.15;;;;;;;10.63;56.23;100296.88;4995702;28;20053;-85
2021/03/10 01:49:35;;;;;;;12.05;5.35;;;;;;;10.74;56.16;100287.41;4995829;28;20030;-85
2021/03/10 01:52:00;;;;;;;17.92;6.15;;;;;;;10.69;55.57;100285.94;4995559;28;20030;-85
2021/03/10 01:54:26;;;;;;;14.27;5.88;;;;;;;10.69;55.14;100272.00;4993855;28;20019;-85
2021/03/10 01:56:51;;;;;;;15.00;6.13;;;;;;;10.52;55.43;100275.78;4994274;28;20027;-85
2021/03/10 01:59:17;;;;;;;15.30;6.28;;;;;;;10.40;56.04;100295.84;4993806;28;20038;-85
2021/03/10 02:01:43;;;;;;;26.70;7.97;;;;;;;10.32;56.03;100283.25;4993757;28;20073;-84
2021/03/10 02:04:09;;;;;;;19.90;6.28;;;;;;;10.69;54.89;100275.44;4995271;28;20031;-85
2021/03/10 02:07:05;;;;;;;19.55;6.53;;;;;;;10.94;54.24;100273.72;4994117;28;20109;-85
2021/03/10 02:10:02;;;;;;;12.73;6.80;;;;;;;10.94;53.89;100264.97;4995085;28;20030;-85
2021/03/10 02:12:58;;;;;;;13.77;5.82;;;;;;;10.61;55.04;100263.81;4994790;28;20050;-85
2021/03/10 02:16:06;;;;;;;12.88;5.93;;;;;;;10.97;53.42;100257.72;4975709;28;20481;-85
2021/03/10 02:19:10;;;;;;;20.55;7.30;;;;;;;10.59;54.05;100256.03;4993540;28;20537;-85
2021/03/10 02:21:48;;;;;;;14.57;6.47;;;;;;;10.77;53.63;100242.56;4986405;28;20038;-85
2021/03/10 02:24:27;;;;;;;17.95;7.18;;;;;;;10.73;54.14;100259.47;4994647;28;20033;-86
2021/03/10 02:27:15;;;;;;;15.02;7.28;;;;;;;10.50;54.26;100260.16;4994459;28;20022;-86
2021/03/10 02:29:42;;;;;;;19.25;7.95;;;;;;;10.55;54.68;100251.97;4994328;28;20022;-85
2021/03/10 02:32:10;;;;;;;22.60;7.65;;;;;;;10.54;54.34;100250.25;4993472;28;20134;-85
2021/03/10 02:34:36;;;;;;;25.17;8.82;;;;;;;10.55;54.17;100243.25;4994477;28;20432;-85
2021/03/10 02:37:02;;;;;;;16.75;8.13;;;;;;;10.56;54.97;100251.00;4994303;28;20030;-85
2021/03/10 02:39:28;;;;;;;18.52;7.90;;;;;;;10.73;54.76;100236.69;4994342;28;20388;-85
2021/03/10 02:41:54;;;;;;;18.77;8.13;;;;;;;10.65;55.53;100236.41;4994027;28;20033;-85
2021/03/10 02:44:22;;;;;;;20.42;8.00;;;;;;;10.47;55.76;100243.78;4994097;28;20052;-85
2021/03/10 02:46:47;;;;;;;22.08;8.52;;;;;;;10.55;55.98;100228.31;4994046;28;20048;-86
2021/03/10 02:49:13;;;;;;;22.10;8.13;;;;;;;10.41;56.35;100213.56;4993144;28;20199;-85
2021/03/10 02:51:42;;;;;;;13.80;8.10;;;;;;;10.34;57.71;100222.78;4992798;28;20027;-85
2021/03/10 02:54:08;;;;;;;24.50;9.68;;;;;;;10.37;57.69;100216.47;4993888;28;20018;-85
2021/03/10 02:56:34;;;;;;;21.65;9.98;;;;;;;10.16;59.04;100224.88;4994196;28;20027;-85
2021/03/10 02:59:00;;;;;;;21.13;9.98;;;;;;;10.11;58.74;100217.34;4993658;28;20125;-85
2021/03/10 03:01:25;;;;;;;25.92;12.25;;;;;;;9.85;58.90;100194.66;4992499;28;20611;-85
2021/03/10 03:03:51;;;;;;;24.50;11.90;;;;;;;10.21;58.22;100191.31;4993785;28;20109;-85
2021/03/10 03:06:16;;;;;;;24.35;11.35;;;;;;;10.31;58.01;100189.72;4992353;28;20026;-85
2021/03/10 03:08:42;;;;;;;24.25;11.68;;;;;;;10.34;58.30;100190.47;4994199;28;20037;-85
2021/03/10 03:11:07;;;;;;;30.20;12.77;;;;;;;10.04;59.09;100178.50;4993787;28;20030;-85
2021/03/10 03:13:34;;;;;;;34.55;12.65;;;;;;;9.96;59.70;100165.09;4993556;28;20433;-85
2021/03/10 03:16:04;;;;;;;24.67;13.02;;;;;;;9.95;59.59;100168.66;4993701;28;20507;-85
2021/03/10 03:18:30;;;;;;;25.33;13.13;;;;;;;10.13;58.93;100167.38;4993593;28;20312;-85
2021/03/10 03:21:00;;;;;;;27.88;12.98;;;;;;;9.92;60.22;100143.47;4993418;28;20204;-85
2021/03/10 03:23:26;;;;;;;26.73;13.60;;;;;;;9.87;60.99;100158.69;4993580;28;20023;-85
2021/03/10 03:25:52;;;;;;;28.23;13.55;;;;;;;9.91;61.00;100147.91;4993537;28;20033;-85
2021/03/10 03:28:20;;;;;;;26.75;14.32;;;;;;;10.36;60.74;100149.19;4991638;28;20026;-85
2021/03/10 03:30:48;;;;;;;27.45;13.60;;;;;;;10.13;60.76;100141.97;4993430;28;20030;-86
2021/03/10 03:33:15;;;;;;;29.67;15.15;;;;;;;10.27;61.08;100146.25;4992995;28;20396;-86
2021/03/10 03:35:43;;;;;;;32.47;15.88;;;;;;;10.51;61.18;100135.00;4993054;28;20364;-85
2021/03/10 03:38:09;;;;;;;26.85;13.95;;;;;;;9.83;63.12;100118.72;4992979;28;20389;-85
2021/03/10 03:40:35;;;;;;;29.83;14.05;;;;;;;9.71;64.03;100120.41;4993287;28;20033;-85
2021/03/10 03:43:01;;;;;;;33.67;15.45;;;;;;;9.88;64.15;100111.38;4993070;28;20026;-85
2021/03/10 03:45:27;;;;;;;28.35;14.30;;;;;;;10.08;63.93;100106.53;4991919;28;20041;-86
2021/03/10 03:47:55;;;;;;;29.85;13.77;;;;;;;10.16;63.66;100109.44;4992952;28;20030;-85
2021/03/10 03:50:24;;;;;;;22.30;13.07;;;;;;;10.00;64.82;100095.75;4993177;28;20034;-85
2021/03/10 03:52:51;;;;;;;26.85;12.50;;;;;;;9.84;66.38;100099.44;4991740;28;20105;-85
2021/03/10 03:55:16;;;;;;;34.53;12.70;;;;;;;10.24;65.27;100086.09;4993162;28;20081;-85
2021/03/10 03:57:42;;;;;;;30.92;13.35;;;;;;;9.64;66.92;100077.22;4991099;28;20030;-85
2021/03/10 04:00:20;;;;;;;26.10;13.13;;;;;;;9.98;66.77;100058.28;4992684;28;20030;-85
2021/03/10 04:02:47;;;;;;;27.92;13.63;;;;;;;9.75;67.70;100067.78;4993313;28;20034;-85
2021/03/10 04:05:14;;;;;;;23.73;12.52;;;;;;;10.20;67.15;100057.59;4993046;28;20065;-86
2021/03/10 04:07:50;;;;;;;23.67;11.55;;;;;;;10.20;67.02;100049.72;4992024;28;20030;-86
2021/03/10 04:10:17;;;;;;;22.98;10.70;;;;;;;9.64;68.77;100043.16;4991415;28;20022;-86
2021/03/10 04:12:43;;;;;;;24.98;12.02;;;;;;;9.76;69.06;100044.06;4992621;28;20023;-86
2021/03/10 04:15:11;;;;;;;26.75;11.02;;;;;;;10.04;68.69;100031.63;4991309;28;20038;-86
2021/03/10 04:17:36;;;;;;;26.40;11.93;;;;;;;10.13;68.55;100023.09;4992427;28;20034;-86
2021/03/10 04:20:06;;;;;;;26.42;12.25;;;;;;;10.16;68.67;100025.47;4993015;28;20080;-86
2021/03/10 04:22:31;;;;;;;17.83;9.95;;;;;;;9.79;69.93;100024.66;4992782;28;20037;-86
2021/03/10 04:24:57;;;;;;;20.95;10.25;;;;;;;9.91;69.71;100022.00;4992806;28;20388;-85
2021/03/10 04:27:22;;;;;;;21.13;9.70;;;;;;;9.88;70.16;100006.47;4991319;28;20473;-86
2021/03/10 04:29:47;;;;;;;24.50;9.82;;;;;;;9.99;70.22;100012.75;4992429;28;20385;-86
2021/03/10 04:32:13;;;;;;;20.17;9.27;;;;;;;9.82;71.29;100004.31;4992517;28;20026;-85
2021/03/10 04:34:38;;;;;;;25.48;10.93;;;;;;;9.71;71.59;100007.66;4991409;28;20029;-85
2021/03/10 04:37:03;;;;;;;19.25;9.10;;;;;;;10.03;71.63;99987.97;4992444;28;20585;-86
2021/03/10 04:39:29;;;;;;;25.13;10.40;;;;;;;9.61;73.00;99990.91;4993833;28;20030;-86
2021/03/10 04:41:54;;;;;;;23.13;10.02;;;;;;;9.89;71.79;99991.56;4996538;28;20105;-86
2021/03/10 04:44:19;;;;;;;18.17;9.18;;;;;;;9.67;72.12;99992.28;4996602;28;20109;-85
2021/03/10 04:46:45;;;;;;;25.80;10.80;;;;;;;9.80;73.09;99993.09;4996426;28;20377;-86
2021/03/10 04:49:10;;;;;;;18.40;9.57;;;;;;;10.00;72.03;99978.53;4996392;28;20499;-86
2021/03/10 04:51:36;;;;;;;21.13;10.55;;;;;;;10.17;71.48;99984.34;4996364;28;20357;-86
2021/03/10 04:54:01;;;;;;;23.58;10.35;;;;;;;9.98;72.17;99961.25;4994995;28;20469;-85
2021/03/10 04:56:26;;;;;;;19.15;9.77;;;;;;;9.55;74.38;99986.13;4994921;28;20030;-86
2021/03/10 04:58:52;;;;;;;19.80;9.65;;;;;;;9.97;73.38;99964.81;4995536;28;20110;-86
2021/03/10 05:01:18;;;;;;;22.35;9.52;;;;;;;9.88;73.28;99968.94;4995870;28;20485;-85
2021/03/10 05:03:43;;;;;;;19.98;10.85;;;;;;;9.74;74.17;99962.06;4994818;28;20596;-85
2021/03/10 05:06:08;;;;;;;26.77;9.57;;;;;;;9.89;74.24;99947.00;4996142;28;20100;-85
2021/03/10 05:08:34;;;;;;;24.15;9.45;;;;;;;10.14;72.94;99956.56;4996089;28;20070;-86
2021/03/10 05:10:59;;;;;;;21.45;9.93;;;;;;;9.95;73.83;99950.97;4995926;28;20018;-86
2021/03/10 05:13:25;;;;;;;24.33;10.13;;;;;;;9.79;75.13;99946.81;4994860;28;20030;-86
2021/03/10 05:15:50;;;;;;;19.45;8.77;;;;;;;9.72;76.12;99935.13;4996004;28;20029;-86
2021/03/10 05:18:15;;;;;;;24.30;9.30;;;;;;;9.84;74.76;99951.75;4995764;28;20038;-86
2021/03/10 05:20:41;;;;;;;21.50;8.75;;;;;;;9.97;74.62;99949.06;4995998;28;20053;-85
2021/03/10 05:23:06;;;;;;;23.80;8.88;;;;;;;10.06;74.25;99941.38;4995923;28;20030;-86
2021/03/10 05:25:31;;;;;;;17.27;8.38;;;;;;;9.96;74.37;99929.06;4995924;28;20057;-86
2021/03/10 05:27:57;;;;;;;18.83;7.97;;;;;;;9.67;74.72;99935.44;4995114;28;20057;-85
2021/03/10 05:30:22;;;;;;;20.83;8.73;;;;;;;9.66;75.93;99939.03;4994542;28;20077;-85
2021/03/10 05:32:47;;;;;;;17.38;8.50;;;;;;;9.81;74.71;99936.22;4995688;28;20786;-85
2021/03/10 05:35:13;;;;;;;15.48;7.88;;;;;;;9.61;75.83;99935.03;4995809;28;20065;-85
2021/03/10 05:37:38;;;;;;;17.15;7.75;;;;;;;10.06;73.28;99907.28;4995240;28;20038;-85
2021/03/10 05:40:05;;;;;;;17.63;7.22;;;;;;;10.54;72.46;99906.38;4995310;28;20040;-86
2021/03/10 05:42:30;;;;;;;18.25;7.45;;;;;;;10.32;72.66;99920.28;4995386;28;20056;-86
2021/03/10 05:44:56;;;;;;;16.88;8.05;;;;;;;10.34;73.15;99909.66;4994283;28;20057;-86
2021/03/10 05:47:21;;;;;;;21.40;8.55;;;;;;;10.32;73.27;99896.66;4994866;28;20432;-85
2021/03/10 05:49:47;;;;;;;18.05;8.10;;;;;;;10.11;74.64;99885.94;4995048;28;20023;-86
2021/03/10 05:52:13;;;;;;;22.65;9.15;;;;;;;10.05;74.53;99878.53;4995353;28;20029;-86
2021/03/10 05:54:41;;;;;;;21.00;8.95;;;;;;;10.08;74.58;99883.56;4995198;28;20027;-86
2021/03/10 05:57:07;;;;;;;15.30;8.48;;;;;;;9.83;76.87;99879.28;4994796;28;20035;-86
2021/03/10 05:59:32;;;;;;;19.38;8.27;;;;;;;9.78;76.61;99869.13;4994787;28;20164;-85
2021/03/10 06:01:58;;;;;;;13.70;7.68;;;;;;;10.06;75.80;99859.22;4994910;28;20515;-86
2021/03/10 06:04:24;;;;;;;21.30;7.95;;;;;;;10.38;74.66;99863.88;4994925;28;20027;-86
2021/03/10 06:06:51;;;;;;;17.77;8.90;;;;;;;10.03;76.54;99860.31;4994823;28;20030;-86
2021/03/10 06:09:20;;;;;;;12.80;7.95;;;;;;;9.87;76.89;99859.75;4995626;28;20038;-86
2021/03/10 06:11:53;;;;;;;15.60;8.32;;;;;;;10.23;76.68;99861.44;4995120;28;20069;-86
2021/03/10 06:14:19;;;;;;;18.83;8.68;;;;;;;9.87;77.75;99852.72;4993815;28;20030;-86
2021/03/10 06:16:44;;;;;;;21.65;7.88;;;;;;;9.54;79.90;99840.31;4994577;28;20072;-85
2021/03/10 06:19:10;;;;;;;16.95;7.85;;;;;;;9.79;79.90;99833.25;4994588;28;20053;-86
2021/03/10 06:21:35;;;;;;;15.15;7.32;;;;;;;9.87;79.83;99847.50;4993522;28;20460;-86
2021/03/10 06:24:03;;;;;;;15.50;7.60;;;;;;;10.19;78.73;99822.41;4994687;28;20049;-86
2021/03/10 06:26:34;;;;;;;19.05;7.40;;;;;;;10.19;79.39;99819.78;4994583;28;20058;-86
2021/03/10 06:29:01;;;;;;;17.67;7.40;;;;;;;10.21;79.69;99817.88;4994297;28;20396;-86
2021/03/10 06:31:34;;;;;;;17.15;7.30;;;;;;;10.18;80.31;99824.19;4994688;28;20027;-86
2021/03/10 06:34:14;;;;;;;15.57;7.28;;;;;;;10.77;77.93;99815.34;4994394;28;20436;-86
2021/03/10 06:36:48;;;;;;;17.13;6.88;;;;;;;10.35;79.17;99795.88;4994133;28;20029;-87
2021/03/10 06:39:23;;;;;;;15.45;7.38;;;;;;;10.20;80.92;99809.19;4994255;28;20026;-86
2021/03/10 06:41:48;;;;;;;16.48;6.47;;;;;;;10.45;79.80;99802.94;4994204;28;20076;-86
2021/03/10 06:44:28;;;;;;;18.42;7.57;;;;;;;10.05;81.65;99802.47;4994290;28;20034;-86
2021/03/10 06:47:01;;;;;;;12.88;6.53;;;;;;;10.37;80.45;99796.56;4993848;28;20022;-86
2021/03/10 06:49:33;;;;;;;13.52;7.45;;;;;;;10.63;79.29;99795.41;4992955;28;20027;-87
2021/03/10 06:52:09;;;;;;;14.32;6.18;;;;;;;10.56;79.24;99819.63;4994246;28;20048;-86
2021/03/10 06:54:35;;;;;;;11.88;5.28;;;;;;;10.50;80.21;99786.81;4993994;28;20022;-86
2021/03/10 06:57:06;;;;;;;14.93;6.55;;;;;;;10.46;80.32;99796.72;4992644;28;20027;-85
2021/03/10 06:59:45;;;;;;;17.65;6.50;;;;;;;10.96;78.00;99803.38;4994696;28;20284;-85
2021/03/10 07:02:29;;;;;;;15.85;6.25;;;;;;;10.82;78.92;99791.34;5003807;28;20022;-86
2021/03/10 07:04:55;;;;;;;12.88;5.53;;;;;;;10.78;79.14;99792.53;5014222;28;20077;-85
2021/03/10 07:07:22;;;;;;;13.57;5.72;;;;;;;10.60;79.71;99787.75;5017560;23;20016;-84
2021/03/10 07:09:47;;;;;;;13.60;5.40;;;;;;;10.42;80.63;99790.03;4990707;28;20028;-84
2021/03/10 07:12:15;;;;;;;12.82;5.28;;;;;;;10.47;81.10;99787.91;4992725;28;20454;-85
2021/03/10 07:14:42;;;;;;;10.88;4.70;;;;;;;10.65;80.41;99788.25;4986348;28;20031;-85
2021/03/10 07:17:08;;;;;;;19.40;5.72;;;;;;;10.48;81.25;99784.31;4984036;28;20033;-85
2021/03/10 07:19:34;;;;;;;8.73;5.03;;;;;;;10.29;82.46;99800.59;4978358;28;20026;-84
2021/03/10 07:22:21;;;;;;;9.98;4.78;;;;;;;10.42;83.24;99804.94;4973567;28;20031;-85
2021/03/10 07:24:56;;;;;;;7.95;5.30;;;;;;;10.45;82.77;99783.72;4955398;28;20027;-85
2021/03/10 07:27:24;;;;;;;9.85;5.00;;;;;;;10.62;81.26;99790.28;4954063;28;20031;-86
2021/03/10 07:29:56;;;;;;;11.80;5.07;;;;;;;10.34;83.61;99792.41;4966985;28;20077;-85
2021/03/10 07:32:23;;;;;;;11.35;4.97;;;;;;;10.34;82.93;99786.34;4973295;28;20050;-85
2021/03/10 07:35:00;;;;;;;15.32;4.90;;;;;;;10.78;81.61;99789.91;4956908;28;20094;-85
2021/03/10 07:37:25;;;;;;;9.43;4.05;;;;;;;10.46;82.81;99790.63;4972670;28;20031;-85
2021/03/10 07:39:50;;;;;;;11.90;4.55;;;;;;;10.57;83.05;99772.25;4964302;28;20434;-86
2021/03/10 07:42:17;;;;;;;7.38;3.60;;;;;;;10.37;83.72;99768.56;4966467;28;20370;-86
2021/03/10 07:44:54;;;;;;;5.40;3.65;;;;;;;10.42;83.34;99755.09;4968303;28;20085;-86
2021/03/10 07:47:19;;;;;;;9.60;3.72;;;;;;;10.68;82.37;99761.75;4969675;28;20034;-85
2021/03/10 07:49:56;;;;;;;7.03;3.55;;;;;;;10.78;81.93;99758.41;4970894;28;20038;-85
2021/03/10 07:52:21;;;;;;;10.82;3.75;;;;;;;10.55;82.00;99749.72;4973229;28;20033;-86
2021/03/10 07:55:02;;;;;;;8.38;3.40;;;;;;;10.51;83.50;99755.19;4965182;28;20028;-86
2021/03/10 07:57:28;;;;;;;10.80;3.65;;;;;;;10.69;82.89;99760.78;4961375;28;20062;-86
2021/03/10 07:59:57;;;;;;;10.23;3.78;;;;;;;10.90;82.05;99752.19;4975849;28;20071;-86
2021/03/10 08:02:25;;;;;;;5.18;3.25;;;;;;;10.90;82.42;99754.81;4969030;28;20053;-85
2021/03/10 08:05:01;;;;;;;3.85;2.72;;;;;;;11.02;81.63;99745.09;4961920;28;20031;-85
2021/03/10 08:07:30;;;;;;;6.80;2.88;;;;;;;11.20;80.32;99754.13;4981955;28;20057;-86
2021/03/10 08:09:57;;;;;;;8.55;3.58;;;;;;;10.82;81.80;99739.66;4972171;28;20118;-86
2021/03/10 08:12:37;;;;;;;8.52;3.13;;;;;;;10.83;83.15;99748.38;4970483;28;20477;-85
2021/03/10 08:15:05;;;;;;;9.50;3.17;;;;;;;11.13;81.41;99741.63;4962944;28;20102;-84
2021/03/10 08:17:31;;;;;;;6.05;3.78;;;;;;;11.10;81.18;99727.78;4974599;28;20023;-85
2021/03/10 08:20:02;;;;;;;8.95;3.10;;;;;;;11.05;82.00;99729.94;4958815;28;20096;-85
2021/03/10 08:22:29;;;;;;;6.35;3.60;;;;;;;11.16;82.03;99736.09;4973368;28;20392;-85
2021/03/10 08:24:56;;;;;;;8.80;2.90;;;;;;;10.73;83.50;99721.19;4971775;28;20027;-84
2021/03/10 08:27:29;;;;;;;8.57;3.47;;;;;;;11.00;82.44;99737.34;4963427;28;20485;-83
2021/03/10 08:29:55;;;;;;;7.40;3.40;;;;;;;10.98;82.23;99727.91;4971835;28;20050;-83
2021/03/10 08:32:25;;;;;;;10.68;2.97;;;;;;;11.19;81.85;99725.34;4963509;28;20051;-83
2021/03/10 08:34:51;;;;;;;6.75;3.10;;;;;;;11.20;81.78;99727.84;4968055;28;20438;-85
2021/03/10 08:37:17;;;;;;;8.43;2.80;;;;;;;11.80;79.19;99715.00;4971487;28;20023;-85
2021/03/10 08:39:45;;;;;;;7.88;2.67;;;;;;;11.31;81.10;99732.22;4965969;28;20022;-85
2021/03/10 08:42:11;;;;;;;14.60;3.80;;;;;;;11.46;80.66;99724.88;4969885;28;20065;-84
2021/03/10 08:44:45;;;;;;;6.10;2.83;;;;;;;11.02;82.41;99729.34;4972234;28;20106;-84
2021/03/10 08:47:16;;;;;;;7.32;2.67;;;;;;;11.67;80.11;99709.09;4971664;28;20045;-83
2021/03/10 08:49:43;;;;;;;7.93;2.72;;;;;;;11.30;81.82;99717.44;4970746;28;20023;-83
2021/03/10 08:52:09;;;;;;;5.82;2.38;;;;;;;11.45;80.48;99710.91;4967045;28;20420;-84
2021/03/10 08:55:03;;;;;;;6.80;2.40;;;;;;;11.64;80.19;99712.84;4969545;28;20039;-84
2021/03/10 08:57:33;;;;;;;5.30;2.40;;;;;;;11.39;81.90;99727.16;4966274;28;20504;-84
2021/03/10 09:00:00;;;;;;;7.88;2.33;;;;;;;11.00;83.63;99716.34;4970745;28;20366;-83
2021/03/10 09:02:27;;;;;;;6.03;2.40;;;;;;;11.17;83.00;99722.00;4959552;28;20489;-84
2021/03/10 09:04:53;;;;;;;6.72;2.17;;;;;;;11.06;84.01;99710.59;4968648;28;20098;-83
2021/03/10 09:07:20;;;;;;;6.28;2.33;;;;;;;11.38;82.72;99693.97;4986261;23;20034;-86
2021/03/10 09:09:47;;;;;;;6.40;2.20;;;;;;;11.22;83.70;99714.59;5010348;28;20076;-85
2021/03/10 09:12:15;;;;;;;7.72;2.13;;;;;;;11.15;83.98;99706.38;5012041;28;20021;-85
2021/03/10 09:14:42;;;;;;;4.50;2.22;;;;;;;11.02;85.05;99689.94;5012466;28;20105;-85
2021/03/10 09:17:08;;;;;;;7.68;2.58;;;;;;;11.38;83.39;99698.41;5008146;28;20452;-85
2021/03/10 09:19:37;;;;;;;7.13;2.17;;;;;;;11.24;83.65;99708.25;5006652;28;20073;-85
2021/03/10 09:22:06;;;;;;;8.10;2.65;;;;;;;11.52;82.98;99700.72;5007734;28;20084;-85
2021/03/10 09:24:31;;;;;;;5.72;2.35;;;;;;;11.32;83.58;99691.84;5011593;28;20034;-86
2021/03/10 09:26:56;;;;;;;8.82;2.40;;;;;;;11.19;84.51;99697.28;5019347;28;20030;-86
2021/03/10 09:29:22;;;;;;;8.82;2.30;;;;;;;11.27;84.66;99699.28;5008412;28;20053;-85
2021/03/10 09:31:54;;;;;;;6.72;2.42;;;;;;;11.88;81.63;99688.88;5013928;28;20030;-86
2021/03/10 09:34:20;;;;;;;3.83;2.05;;;;;;;11.57;83.33;99682.78;4996115;28;20034;-86
2021/03/10 09:36:46;;;;;;;3.88;1.67;;;;;;;11.12;84.95;99669.84;5016007;28;20019;-86
2021/03/10 09:39:14;;;;;;;4.88;1.90;;;;;;;11.55;84.04;99675.97;5010709;28;20030;-85
2021/03/10 09:41:47;;;;;;;5.22;1.95;;;;;;;11.33;84.00;99664.59;5008280;28;20022;-85
2021/03/10 09:44:12;;;;;;;3.08;1.60;;;;;;;11.46;84.27;99682.84;5016637;28;20361;-86
2021/03/10 09:46:44;;;;;;;4.93;1.60;;;;;;;11.68;83.49;99664.28;5015151;28;20503;-85
2021/03/10 09:49:09;;;;;;;6.27;1.70;;;;;;;11.76;83.24;99650.50;5015694;28;20526;-86
2021/03/10 09:51:48;;;;;;;4.28;1.83;;;;;;;11.87;82.86;99657.47;5015481;28;20097;-86
2021/03/10 09:54:13;;;;;;;4.70;1.42;;;;;;;11.10;85.41;99643.69;5013898;28;20058;-87
2021/03/10 09:56:51;;;;;;;4.25;2.05;;;;;;;11.49;84.83;99649.25;5030353;28;20089;-86
2021/03/10 09:59:17;;;;;;;3.28;1.70;;;;;;;11.55;84.94;99628.63;5017998;28;20030;-87
2021/03/10 10:01:46;;;;;;;8.20;1.80;;;;;;;11.56;85.25;99640.84;5015554;28;20097;-87
2021/03/10 10:04:12;;;;;;;4.45;1.58;;;;;;;11.30;86.30;99643.84;5016067;28;20021;-87
2021/03/10 10:06:51;;;;;;;4.28;1.70;;;;;;;12.08;82.88;99617.97;5005888;28;20037;-86
2021/03/10 10:09:17;;;;;;;7.15;1.77;;;;;;;11.24;85.87;99621.53;5004412;28;20037;-87
2021/03/10 10:11:42;;;;;;;4.43;1.60;;;;;;;11.48;84.21;99604.66;5011278;28;20035;-87
2021/03/10 10:14:07;;;;;;;4.43;1.42;;;;;;;11.43;85.61;99602.44;5013065;28;20416;-87
2021/03/10 10:16:36;;;;;;;5.68;1.77;;;;;;;12.06;82.94;99588.34;5011275;28;20302;-86
2021/03/10 10:19:02;;;;;;;6.90;1.73;;;;;;;11.76;83.86;99613.66;5014778;28;20499;-87
2021/03/10 10:21:27;;;;;;;4.82;1.67;;;;;;;11.49;84.69;99607.19;5014665;28;20057;-86
2021/03/10 10:23:53;;;;;;;5.65;1.38;;;;;;;11.68;84.28;99611.69;5015265;28;20113;-86
2021/03/10 10:26:18;;;;;;;6.28;1.27;;;;;;;11.82;83.49;99607.88;5006890;28;20026;-86
2021/03/10 10:28:43;;;;;;;6.32;1.55;;;;;;;12.08;82.16;99596.94;5008487;28;20032;-86
2021/03/10 10:31:09;;;;;;;3.70;1.48;;;;;;;11.60;83.94;99602.81;5012706;28;20073;-86
2021/03/10 10:33:34;;;;;;;3.28;1.42;;;;;;;11.44;84.72;99587.50;5015137;28;20034;-86
2021/03/10 10:35:59;;;;;;;6.18;1.63;;;;;;;11.63;83.71;99581.50;5009323;28;20087;-86
2021/03/10 10:38:25;;;;;;;7.78;1.45;;;;;;;11.75;82.92;99590.13;5008586;28;20042;-85
2021/03/10 10:40:50;;;;;;;4.07;1.50;;;;;;;11.79;83.12;99595.00;5011819;28;20036;-86
2021/03/10 10:43:15;;;;;;;4.30;1.35;;;;;;;12.01;82.55;99569.50;5007384;28;20097;-86
2021/03/10 10:45:41;;;;;;;5.63;1.48;;;;;;;11.95;82.20;99572.66;5006205;28;20132;-86
2021/03/10 10:48:07;;;;;;;4.78;1.60;;;;;;;11.77;82.66;99546.13;5013969;28;20041;-86
2021/03/10 10:50:32;;;;;;;6.43;1.83;;;;;;;12.03;82.96;99549.16;5007956;28;20535;-85
2021/03/10 10:52:57;;;;;;;7.35;2.03;;;;;;;11.97;82.77;99552.34;5013825;28;20067;-85
2021/03/10 10:55:23;;;;;;;5.55;1.50;;;;;;;11.75;83.32;99530.50;5009226;28;20034;-86
2021/03/10 10:57:48;;;;;;;5.13;1.60;;;;;;;12.02;82.83;99547.47;5012303;28;20029;-86
2021/03/10 11:00:19;;;;;;;6.75;2.00;;;;;;;12.02;83.35;99542.22;5006801;28;20432;-86
2021/03/10 11:02:45;;;;;;;5.60;1.45;;;;;;;12.23;81.03;99548.22;5006206;28;20025;-85
2021/03/10 11:05:10;;;;;;;5.50;1.40;;;;;;;11.86;82.39;99514.59;5009594;28;20026;-86
2021/03/10 11:07:36;;;;;;;4.68;2.05;;;;;;;12.30;81.25;99507.25;5013761;28;20446;-86
2021/03/10 11:10:02;;;;;;;4.93;1.10;;;;;;;12.09;81.97;99523.13;5028816;28;20057;-86
2021/03/10 11:12:28;;;;;;;5.32;1.42;;;;;;;11.76;83.28;99519.00;5010751;28;20030;-86
2021/03/10 11:14:53;;;;;;;7.82;1.83;;;;;;;12.34;81.44;99512.22;5005694;28;20061;-86
2021/03/10 11:17:19;;;;;;;2.72;1.17;;;;;;;12.18;81.64;99510.94;5002407;28;20033;-85
2021/03/10 11:19:44;;;;;;;6.00;1.45;;;;;;;11.67;84.23;99501.38;5019283;28;20046;-86
2021/03/10 11:22:09;;;;;;;5.07;2.00;;;;;;;11.77;84.03;99514.56;4994495;28;20030;-86
2021/03/10 11:24:35;;;;;;;7.55;2.15;;;;;;;12.01;83.24;99501.09;5005977;28;20076;-85
2021/03/10 11:27:01;;;;;;;7.68;1.48;;;;;;;12.52;80.96;99486.88;5003267;28;20413;-86